Nearby METAR Reports

 

KSNK - Snyder/Winston, Texas, USA
Distance from station: SSE 25mi, 41km
Updated: Wed, 20-Mar-2019 4:15am CDT
Clear
Clear
 Wind from NNW
Wind: NNW 9 mph , 15 km/h
Temperature: 43°F , 6°C
Wind Chill: 38°F , 3°C
Dew Point: 32°F , 0°C
Humidity: 66%
Barometer: 30.19 inHg , 1022.4 hPa
Clouds: Clear
Visibility: 10 miles , 16 km
2019/03/20 09:15 KSNK 200915Z AUTO 33008KT 10SM CLR 06/00 A3019 RMK AO2 T00631004
KSWW - Sweetwater, Texas, USA
Distance from station: SE 56mi, 90km
Updated: Wed, 20-Mar-2019 4:15am CDT
Clear
Clear
 Wind from S
Wind: S 10 mph , 17 km/h
Temperature: 48°F , 9°C
Wind Chill: 44°F , 7°C
Dew Point: 39°F , 4°C
Humidity: 71%
Barometer: 30.19 inHg , 1022.4 hPa
Clouds: Clear
Visibility: 10 miles , 16 km
2019/03/20 09:15 KSWW 200915Z AUTO 19009KT 10SM CLR 09/04 A3019 RMK AO2 T00850039
 
KLBB - Lubbock, Texas, USA
Distance from station: NW 59mi, 94km
Updated: Wed, 20-Mar-2019 3:53am CDT
Few Clouds
Few Clouds
 Wind from NNE
Wind: NNE 12 mph , 19 km/h
Temperature: 45°F , 7°C
Wind Chill: 39°F , 4°C
Dew Point: 37°F , 3°C
Humidity: 76%
Barometer: 30.21 inHg , 1023 hPa
Clouds: Few Clouds
Visibility: 10 miles , 16 km
Cloud details: Few Clouds 11000 ft
2019/03/20 08:53 KLBB 200853Z 03010KT 10SM FEW110 07/03 A3021 RMK AO2 SLP208 T00670033 51010
KPVW - Plainview, Texas, USA
Distance from station: NNW 85mi, 137km
Updated: Wed, 20-Mar-2019 4:15am CDT
Overcast
Overcast
 Wind from NE
Wind: NE 15 mph , 24 km/h, Gust: 20 mph , 31 km/h
Temperature: 43°F , 6°C
Wind Chill: 36°F , 2°C
Dew Point: 37°F , 3°C
Humidity: 81%
Barometer: 30.25 inHg , 1024.4 hPa
Clouds: Overcast
Visibility: 10 miles , 16 km
Cloud details: Overcast 6000 ft
2019/03/20 09:15 KPVW 200915Z AUTO 04013G17KT 10SM OVC060 06/03 A3025 RMK AO2 T00600031
 
KDYS - Dyess Afb/Abilen, Texas, USA
Distance from station: ESE 88mi, 141km
Updated: Wed, 20-Mar-2019 3:56am CDT
Clear
Clear
 Wind from calm
Wind: Calm
Temperature: 48°F , 9°C
Dew Point: 39°F , 4°C
Humidity: 71%
Barometer: 30.17 inHg , 1021.7 hPa
Clouds: Clear
Visibility: 10 miles , 16 km
2019/03/20 08:56 KDYS 200856Z AUTO 00000KT 10SM CLR 09/04 A3017 RMK AO2 SLPNO T00880044 53001 $
KGNC - Seminole, Texas, USA
Distance from station: WSW 89mi, 144km
Updated: Wed, 20-Mar-2019 4:15am CDT
Clear
Clear
 Wind from N
Wind: N 6 mph , 9 km/h
Temperature: 43°F , 6°C
Wind Chill: 39°F , 4°C
Dew Point: 36°F , 2°C
Humidity: 76%
Barometer: 30.22 inHg , 1023.4 hPa
Clouds: Clear
Visibility: 10 miles , 16 km
2019/03/20 09:15 KGNC 200915Z AUTO 35005KT 10SM CLR 06/02 A3022 RMK AO2 T00610021
 
KE11 - Andrews, Texas, USA
Distance from station: WSW 93mi, 149km
Updated: Wed, 20-Mar-2019 4:15am CDT
Clear
Clear
 Wind from calm
Wind: Calm
Temperature: 39°F , 4°C
Dew Point: 34°F , 1°C
Humidity: 81%
Barometer: 30.16 inHg , 1021.3 hPa
Clouds: Clear
Visibility: 10 miles , 16 km
2019/03/20 09:15 KE11 200915Z AUTO 00000KT 10SM CLR 04/01 A3016 RMK AO2 T00380013
KABI - Abilene, Texas, USA
Distance from station: ESE 96mi, 154km
Updated: Wed, 20-Mar-2019 3:52am CDT
Clear
Clear
 Wind from S
Wind: S 9 mph , 15 km/h
Temperature: 50°F , 10°C
Wind Chill: 46°F , 8°C
Dew Point: 45°F , 7°C
Humidity: 82%
Barometer: 30.17 inHg , 1021.7 hPa
Clouds: Clear
Visibility: 10 miles , 16 km
2019/03/20 08:52 KABI 200852Z 17008KT 10SM CLR 10/07 A3017 RMK AO2 SLP206 T01000072 55001
 
KMAF - Midland, Texas, USA
Distance from station: SW 96mi, 154km
Updated: Wed, 20-Mar-2019 3:53am CDT
Clear
Clear
 Wind from SSE
Wind: SSE 7 mph , 11 km/h
Temperature: 45°F , 7°C
Wind Chill: 41°F , 5°C
Dew Point: 37°F , 3°C
Humidity: 76%
Barometer: 30.14 inHg , 1020.7 hPa
Clouds: Clear
Visibility: 10 miles , 16 km
2019/03/20 08:53 KMAF 200853Z AUTO 16006KT 10SM CLR 07/03 A3014 RMK AO2 SLP185 T00720033 56001
KCDS - Childress, Texas, USA
Distance from station: NNE 110mi, 177km
Updated: Wed, 20-Mar-2019 12:53am CDT
NOT Current

 
Barometer: 30.21 inHg , 1023 hPa
2019/03/20 05:53 KCDS 200553Z AUTO A3021 RMK AO2 SLPNO 10194 20111 402170039 53018 PWINO FZRANO $
 
KSJT - San Angelo, Texas, USA
Distance from station: SSE 121mi, 194km
Updated: Wed, 20-Mar-2019 4:20am CDT
Mostly cloudy
Mostly cloudy
 Wind from WSW
Wind: WSW 3 mph , 6 km/h
Temperature: 48°F , 9°C
Dew Point: 43°F , 6°C
Humidity: 82%
Barometer: 30.17 inHg , 1021.7 hPa
Clouds: Mostly cloudy
Visibility: 10 miles , 16 km
Cloud details: Mostly cloudy 2700 ft
2019/03/20 09:20 KSJT 200920Z AUTO 24003KT 10SM BKN027 09/06 A3017 RMK AO2 T00890061
KHOB - Hobbs/Lea Co., New Mexico, USA
Distance from station: WSW 122mi, 196km
Updated: Wed, 20-Mar-2019 4:15am CDT
Clear
Clear
 Wind from N
Wind: N 8 mph , 13 km/h
Temperature: 43°F , 6°C
Wind Chill: 38°F , 3°C
Dew Point: 37°F , 3°C
Humidity: 81%
Barometer: 30.20 inHg , 1022.7 hPa
Clouds: Clear
Visibility: 10 miles , 16 km
2019/03/20 09:15 KHOB 200915Z AUTO 35007KT 10SM CLR 06/03 A3020 RMK AO2
 
KCOM - Coleman Muni, Texas, USA
Distance from station: SE 131mi, 212km
Updated: Wed, 20-Mar-2019 4:15am CDT
Clear
Clear
 Wind from calm
Wind: Calm
Temperature: 48°F , 9°C
Dew Point: 41°F , 5°C
Humidity: 76%
Barometer: 30.19 inHg , 1022.4 hPa
Clouds: Clear
Visibility: 10 miles , 16 km
2019/03/20 09:15 KCOM 200915Z AUTO 00000KT 10SM CLR 09/05 A3019 RMK AO2 T00880048
KBKD - Breckenridge, Texas, USA
Distance from station: E 134mi, 215km
Updated: Wed, 20-Mar-2019 4:15am CDT
Clear
Clear
 Wind from SSE
Wind: SSE 7 mph , 11 km/h
Temperature: 50°F , 10°C
Wind Chill: 47°F , 8°C
Dew Point: 39°F , 4°C
Humidity: 67%
Barometer: 30.18 inHg , 1022 hPa
Clouds: Clear
Visibility: 10 miles , 16 km
2019/03/20 09:15 KBKD 200915Z AUTO 16006KT 10SM CLR 10/04 A3018 RMK AO2 T00970040
 
KF05 - Vernon Wilbarger, Texas, USA
Distance from station: NE 137mi, 220km
Updated: Wed, 20-Mar-2019 4:15am CDT
Clear
Clear
 Wind from NE
Wind: NE 15 mph , 24 km/h, Gust: 23 mph , 37 km/h
Temperature: 54°F , 12°C
Dew Point: 43°F , 6°C
Humidity: 67%
Barometer: 30.22 inHg , 1023.4 hPa
Clouds: Clear
Visibility: 10 miles , 16 km
2019/03/20 09:15 KF05 200915Z AUTO 04013G20KT 10SM CLR 12/06 A3022 RMK AO1 T01150056